Time;durP1;ratioP1;P1;durP2;ratioP2;P2;SDS_P1;SDS_P2;PMS_P1;PMS_P2;Temp;Humidity;BMP_temperature;BMP_pressure;BME280_temperature;BME280_humidity;BME280_pressure;Samples;Min_cycle;Max_cycle;Signal;HPM_P1;HPM_P2
2023/08/25 00:01:39;;;;;;;10.13;7.55;;;;;;;18.53;100.00;100828.91;5030533;28;20045;-72
2023/08/25 00:04:05;;;;;;;15.57;9.00;;;;;;;18.52;100.00;100831.84;5014618;28;20037;-72
2023/08/25 00:06:30;;;;;;;11.27;7.82;;;;;;;18.47;100.00;100835.06;5011243;28;20034;-72
2023/08/25 00:08:56;;;;;;;11.70;7.10;;;;;;;18.51;100.00;100839.22;5020986;28;20033;-72
2023/08/25 00:11:21;;;;;;;13.25;7.50;;;;;;;18.50;100.00;100843.00;5011179;28;20516;-72
2023/08/25 00:13:46;;;;;;;14.77;8.75;;;;;;;18.48;100.00;100834.03;5028924;28;20034;-70
2023/08/25 00:16:12;;;;;;;12.57;9.07;;;;;;;18.48;100.00;100831.28;5030742;28;20546;-72
2023/08/25 00:18:37;;;;;;;10.88;8.40;;;;;;;18.45;100.00;100830.75;5028215;28;20039;-72
2023/08/25 00:21:03;;;;;;;12.70;8.68;;;;;;;18.41;100.00;100841.22;5030812;28;20069;-72
2023/08/25 00:23:28;;;;;;;9.52;8.52;;;;;;;18.38;100.00;100841.56;5027862;28;20047;-72
2023/08/25 00:25:54;;;;;;;9.80;7.68;;;;;;;18.36;100.00;100846.34;5029460;28;20481;-71
2023/08/25 00:28:20;;;;;;;12.40;8.40;;;;;;;18.34;100.00;100835.50;5015074;28;20061;-71
2023/08/25 00:30:47;;;;;;;9.32;7.25;;;;;;;18.33;100.00;100847.56;5009277;28;20029;-71
2023/08/25 00:33:13;;;;;;;11.52;7.72;;;;;;;18.33;100.00;100843.94;5010995;28;20460;-71
2023/08/25 00:35:41;;;;;;;13.02;8.10;;;;;;;18.30;100.00;100853.38;5010612;28;20034;-72
2023/08/25 00:38:06;;;;;;;18.77;9.00;;;;;;;18.28;100.00;100849.06;5011282;28;20034;-72
2023/08/25 00:40:36;;;;;;;10.20;7.80;;;;;;;18.27;100.00;100848.16;5024161;28;20037;-72
2023/08/25 00:43:03;;;;;;;9.80;7.85;;;;;;;18.28;100.00;100847.16;5025193;28;20418;-72
2023/08/25 00:45:32;;;;;;;8.27;6.38;;;;;;;18.25;100.00;100847.47;5028094;28;20048;-71
2023/08/25 00:47:58;;;;;;;11.68;8.13;;;;;;;18.21;100.00;100836.94;5029778;28;20124;-72
2023/08/25 00:50:24;;;;;;;15.93;8.40;;;;;;;18.15;100.00;100835.72;5028346;28;20128;-72
2023/08/25 00:52:50;;;;;;;13.88;8.23;;;;;;;18.13;100.00;100835.00;5012629;28;20033;-72
2023/08/25 00:55:15;;;;;;;9.55;7.88;;;;;;;18.10;100.00;100832.56;5030797;28;20073;-71
2023/08/25 00:57:41;;;;;;;10.40;7.65;;;;;;;18.06;100.00;100832.03;5018911;28;20026;-72
2023/08/25 01:00:09;;;;;;;11.60;9.07;;;;;;;18.09;100.00;100836.31;5010070;28;20057;-72
2023/08/25 01:02:35;;;;;;;10.52;7.68;;;;;;;18.07;100.00;100830.13;5025925;28;20044;-72
2023/08/25 01:05:00;;;;;;;13.63;9.45;;;;;;;18.06;100.00;100839.41;5030143;28;20041;-71
2023/08/25 01:07:25;;;;;;;10.40;8.45;;;;;;;18.05;100.00;100829.44;5027291;28;20033;-71
2023/08/25 01:09:51;;;;;;;11.48;7.70;;;;;;;18.04;100.00;100833.19;5037671;28;20208;-72
2023/08/25 01:12:31;;;;;;;12.60;7.38;;;;;;;18.05;100.00;100834.94;5022944;28;20037;-70
2023/08/25 01:15:04;;;;;;;14.30;8.27;;;;;;;18.04;100.00;100833.19;5009055;28;20041;-72
2023/08/25 01:17:44;;;;;;;11.00;8.07;;;;;;;18.04;100.00;100824.94;5008902;28;20060;-71
2023/08/25 01:20:14;;;;;;;13.38;7.78;;;;;;;18.02;100.00;100824.25;5023524;28;20036;-72
2023/08/25 01:22:59;;;;;;;11.30;8.10;;;;;;;18.02;100.00;100827.84;5028395;28;20052;-71
2023/08/25 01:25:29;;;;;;;12.38;8.20;;;;;;;17.98;100.00;100822.81;5014333;28;20552;-71
2023/08/25 01:27:58;;;;;;;13.07;7.80;;;;;;;17.95;100.00;100823.13;5019699;28;20036;-72
2023/08/25 01:30:26;;;;;;;15.98;8.68;;;;;;;17.92;100.00;100826.22;5028730;28;20041;-72
2023/08/25 01:32:53;;;;;;;15.65;8.50;;;;;;;17.90;100.00;100818.13;5028851;28;20037;-72
2023/08/25 01:35:35;;;;;;;14.43;8.68;;;;;;;17.89;100.00;100818.28;5029567;28;20491;-72
2023/08/25 01:38:15;;;;;;;13.45;9.35;;;;;;;17.87;100.00;100810.19;5013043;28;20049;-72
2023/08/25 01:41:06;;;;;;;16.80;9.05;;;;;;;17.87;100.00;100820.34;5025259;28;20485;-72
2023/08/25 01:43:34;;;;;;;17.58;8.57;;;;;;;17.85;100.00;100825.97;5009176;28;20556;-72
2023/08/25 01:46:00;;;;;;;13.90;8.88;;;;;;;17.84;100.00;100816.00;5007268;28;20078;-72
2023/08/25 01:48:30;;;;;;;12.10;7.90;;;;;;;17.85;100.00;100812.22;5007423;28;20490;-72
2023/08/25 01:50:56;;;;;;;10.98;9.20;;;;;;;17.85;100.00;100817.72;5008848;28;20034;-72
2023/08/25 01:53:21;;;;;;;14.60;10.18;;;;;;;17.88;100.00;100811.91;5029166;28;20489;-72
2023/08/25 01:55:46;;;;;;;14.15;9.27;;;;;;;17.90;100.00;100815.34;5027509;28;20037;-71
2023/08/25 01:58:14;;;;;;;16.58;9.93;;;;;;;17.91;100.00;100806.09;5026814;28;20045;-72
2023/08/25 02:00:39;;;;;;;14.35;10.15;;;;;;;17.94;100.00;100804.91;5026442;28;20517;-72
2023/08/25 02:03:05;;;;;;;14.93;9.70;;;;;;;17.96;100.00;100798.22;5028473;28;20041;-71
2023/08/25 02:05:30;;;;;;;14.23;8.90;;;;;;;17.99;100.00;100789.63;5033226;28;20029;-72
2023/08/25 02:07:55;;;;;;;12.77;8.95;;;;;;;18.02;100.00;100793.97;5027793;28;20441;-72
2023/08/25 02:10:21;;;;;;;12.63;8.85;;;;;;;18.04;100.00;100794.66;5015355;28;20022;-72
2023/08/25 02:12:46;;;;;;;15.27;9.75;;;;;;;18.04;100.00;100792.75;5017834;28;20465;-72
2023/08/25 02:15:12;;;;;;;16.58;9.18;;;;;;;18.06;100.00;100789.88;5026747;28;20087;-71
2023/08/25 02:17:37;;;;;;;17.80;9.50;;;;;;;18.07;100.00;100786.94;5026613;28;20030;-72
2023/08/25 02:20:04;;;;;;;17.45;11.50;;;;;;;18.08;100.00;100785.91;5027322;28;20568;-72
2023/08/25 02:22:29;;;;;;;16.55;11.10;;;;;;;18.09;100.00;100773.91;5026099;28;20396;-72
2023/08/25 02:24:55;;;;;;;17.08;9.98;;;;;;;18.13;100.00;100779.06;5027294;28;20025;-71
2023/08/25 02:27:21;;;;;;;15.27;10.43;;;;;;;18.16;100.00;100782.34;5022093;28;20128;-71
2023/08/25 02:29:46;;;;;;;16.00;10.38;;;;;;;18.20;100.00;100780.16;5007546;28;20128;-70
2023/08/25 02:32:12;;;;;;;17.73;9.90;;;;;;;18.21;100.00;100781.88;4989931;28;20393;-72
2023/08/25 02:34:37;;;;;;;12.25;9.18;;;;;;;18.25;100.00;100775.88;5009007;28;20075;-73
2023/08/25 02:37:03;;;;;;;21.38;9.38;;;;;;;18.29;100.00;100774.53;5007875;28;20052;-72
2023/08/25 02:39:29;;;;;;;15.35;11.27;;;;;;;18.29;100.00;100766.25;5014908;28;20458;-72
2023/08/25 02:41:54;;;;;;;15.57;10.02;;;;;;;18.32;100.00;100768.66;5025755;28;20120;-72
2023/08/25 02:44:20;;;;;;;12.30;9.43;;;;;;;18.31;100.00;100755.94;5026303;28;20044;-71
2023/08/25 02:46:46;;;;;;;17.10;10.30;;;;;;;18.33;100.00;100755.78;5026329;28;20033;-72
2023/08/25 02:49:11;;;;;;;18.08;11.23;;;;;;;18.33;100.00;100751.16;5026621;28;20041;-72
2023/08/25 02:51:36;;;;;;;12.52;9.20;;;;;;;18.33;100.00;100744.78;5025670;28;20067;-73
2023/08/25 02:54:02;;;;;;;14.57;10.25;;;;;;;18.35;100.00;100746.31;5026935;28;20549;-72
2023/08/25 02:56:28;;;;;;;14.30;10.45;;;;;;;18.38;100.00;100744.28;5010098;28;20397;-71
2023/08/25 02:58:54;;;;;;;15.75;11.55;;;;;;;18.37;100.00;100740.63;5025626;28;20501;-72
2023/08/25 03:01:19;;;;;;;17.33;10.75;;;;;;;18.40;100.00;100742.22;5025600;28;20040;-73
2023/08/25 03:03:45;;;;;;;23.08;14.70;;;;;;;18.40;100.00;100733.94;5026455;28;20068;-73
2023/08/25 03:06:11;;;;;;;21.92;12.85;;;;;;;18.41;100.00;100735.66;5026258;28;20021;-72
2023/08/25 03:08:37;;;;;;;12.02;9.35;;;;;;;18.41;100.00;100733.78;5026530;28;20136;-72
2023/08/25 03:11:03;;;;;;;15.82;9.80;;;;;;;18.43;100.00;100734.50;5027569;28;20059;-72
2023/08/25 03:13:30;;;;;;;18.30;10.65;;;;;;;18.42;100.00;100727.25;5025104;28;20076;-72
2023/08/25 03:15:56;;;;;;;19.60;11.27;;;;;;;18.44;100.00;100724.34;5025401;28;20136;-73
2023/08/25 03:18:22;;;;;;;15.35;11.63;;;;;;;18.46;100.00;100722.25;5025810;28;20116;-72
2023/08/25 03:20:51;;;;;;;16.77;11.05;;;;;;;18.46;100.00;100717.59;5025017;28;20052;-72
2023/08/25 03:23:18;;;;;;;16.33;12.40;;;;;;;18.48;100.00;100706.44;5006345;28;20056;-72
2023/08/25 03:25:44;;;;;;;21.98;15.75;;;;;;;18.46;100.00;100705.72;5025337;28;20038;-73
2023/08/25 03:28:11;;;;;;;20.38;14.40;;;;;;;18.49;100.00;100708.16;5023957;28;20468;-72
2023/08/25 03:30:37;;;;;;;14.82;12.10;;;;;;;18.50;100.00;100702.47;5024580;28;20094;-72
2023/08/25 03:33:05;;;;;;;15.25;11.48;;;;;;;18.51;100.00;100706.09;5026843;28;20172;-72
2023/08/25 03:35:34;;;;;;;18.08;10.70;;;;;;;18.51;100.00;100707.00;5025802;28;20033;-72
2023/08/25 03:38:00;;;;;;;17.05;10.65;;;;;;;18.51;100.00;100701.47;5025540;28;20041;-72
2023/08/25 03:40:25;;;;;;;19.33;11.55;;;;;;;18.50;100.00;100698.88;5025648;28;20028;-72
2023/08/25 03:42:51;;;;;;;16.92;10.98;;;;;;;18.51;100.00;100695.06;5008186;28;20178;-72
2023/08/25 03:45:16;;;;;;;16.63;10.13;;;;;;;18.50;100.00;100690.59;5025811;28;20490;-70
2023/08/25 03:47:42;;;;;;;14.75;10.65;;;;;;;18.53;100.00;100685.63;5024864;28;20040;-72
2023/08/25 03:50:07;;;;;;;16.73;11.52;;;;;;;18.51;100.00;100687.69;5025906;28;20064;-72
2023/08/25 03:52:33;;;;;;;18.30;11.50;;;;;;;18.50;100.00;100687.84;5026002;28;20029;-72
2023/08/25 03:54:58;;;;;;;17.75;12.88;;;;;;;18.50;100.00;100687.84;5026130;28;20542;-72
2023/08/25 03:57:25;;;;;;;17.40;13.10;;;;;;;18.52;100.00;100691.31;5023695;28;20244;-72
2023/08/25 03:59:51;;;;;;;21.08;13.55;;;;;;;18.51;100.00;100687.69;5042729;28;20519;-72
2023/08/25 04:02:16;;;;;;;16.45;12.98;;;;;;;18.53;100.00;100693.03;5024646;28;20169;-71
2023/08/25 04:04:41;;;;;;;17.23;11.45;;;;;;;18.55;100.00;100689.06;5026584;28;20025;-72
2023/08/25 04:07:07;;;;;;;18.15;12.27;;;;;;;18.56;100.00;100695.47;5025283;28;20025;-72
2023/08/25 04:09:33;;;;;;;21.80;13.88;;;;;;;18.57;100.00;100688.91;5025935;28;20148;-72
2023/08/25 04:11:58;;;;;;;21.13;12.77;;;;;;;18.55;100.00;100677.19;5022958;28;20434;-71
2023/08/25 04:14:24;;;;;;;22.27;14.70;;;;;;;18.54;100.00;100679.06;5038566;28;20030;-72
2023/08/25 04:16:50;;;;;;;19.38;13.50;;;;;;;18.53;100.00;100682.00;5005026;28;20478;-72
2023/08/25 04:19:16;;;;;;;17.85;13.05;;;;;;;18.53;100.00;100682.88;4990087;28;20048;-72
2023/08/25 04:21:43;;;;;;;24.45;13.45;;;;;;;18.54;100.00;100680.97;5022168;28;20029;-72
2023/08/25 04:24:10;;;;;;;17.67;12.63;;;;;;;18.53;100.00;100680.13;5025682;28;20424;-72
2023/08/25 04:26:36;;;;;;;18.30;12.77;;;;;;;18.54;100.00;100681.84;5026161;28;20107;-72
2023/08/25 04:29:04;;;;;;;23.05;14.02;;;;;;;18.53;100.00;100673.75;5022275;28;20037;-73
2023/08/25 04:31:29;;;;;;;17.80;14.05;;;;;;;18.52;100.00;100677.53;5024894;28;20489;-72
2023/08/25 04:33:57;;;;;;;17.20;13.43;;;;;;;18.51;100.00;100681.28;5023897;28;20088;-72
2023/08/25 04:36:22;;;;;;;20.33;13.90;;;;;;;18.51;100.00;100679.44;5010707;28;20041;-73
2023/08/25 04:38:48;;;;;;;17.73;12.80;;;;;;;18.50;100.00;100682.34;5025192;28;20041;-73
2023/08/25 04:41:14;;;;;;;20.92;12.90;;;;;;;18.48;100.00;100676.13;5027930;28;20076;-72
2023/08/25 04:43:39;;;;;;;21.42;13.00;;;;;;;18.49;100.00;100680.63;5016275;28;20069;-72
2023/08/25 04:46:05;;;;;;;22.27;14.50;;;;;;;18.49;100.00;100683.38;5008378;28;20092;-73
2023/08/25 04:48:30;;;;;;;23.50;14.57;;;;;;;18.50;100.00;100685.94;5017736;28;20125;-73
2023/08/25 04:50:56;;;;;;;17.02;13.82;;;;;;;18.51;100.00;100690.44;5010359;28;20038;-73
2023/08/25 04:53:22;;;;;;;22.27;13.77;;;;;;;18.50;100.00;100680.44;5025869;28;20027;-72
2023/08/25 04:55:48;;;;;;;19.15;13.02;;;;;;;18.51;100.00;100676.69;5028775;28;20120;-72
2023/08/25 04:58:13;;;;;;;17.58;14.20;;;;;;;18.55;100.00;100679.94;5027337;28;20477;-71
2023/08/25 05:00:39;;;;;;;17.50;14.10;;;;;;;18.55;100.00;100671.66;5027802;28;20420;-72
2023/08/25 05:03:07;;;;;;;23.20;14.25;;;;;;;18.54;100.00;100662.53;4998247;28;20045;-73
2023/08/25 05:05:32;;;;;;;29.67;18.67;;;;;;;18.54;100.00;100662.53;5016360;28;20049;-72
2023/08/25 05:07:57;;;;;;;26.40;15.98;;;;;;;18.54;100.00;100659.78;5025479;28;20461;-72
2023/08/25 05:10:24;;;;;;;25.63;16.58;;;;;;;18.53;100.00;100658.06;5026821;28;20037;-72
2023/08/25 05:12:49;;;;;;;20.70;15.48;;;;;;;18.54;100.00;100656.19;5020279;28;20079;-72
2023/08/25 05:15:15;;;;;;;22.75;15.95;;;;;;;18.55;100.00;100656.00;5028843;28;20035;-72
2023/08/25 05:17:40;;;;;;;25.25;17.25;;;;;;;18.57;100.00;100655.84;5027551;28;20041;-72
2023/08/25 05:20:08;;;;;;;24.85;16.35;;;;;;;18.61;100.00;100669.13;5027529;28;20125;-71
2023/08/25 05:22:33;;;;;;;22.45;15.52;;;;;;;18.66;100.00;100657.59;5029881;28;20473;-72
2023/08/25 05:24:59;;;;;;;24.73;14.52;;;;;;;18.70;100.00;100663.66;5027201;28;20067;-72
2023/08/25 05:27:24;;;;;;;21.65;14.68;;;;;;;18.75;100.00;100669.53;5021884;28;20041;-72
2023/08/25 05:29:50;;;;;;;29.50;17.80;;;;;;;18.78;100.00;100652.66;5026096;28;20030;-71
2023/08/25 05:32:19;;;;;;;29.42;20.75;;;;;;;18.80;100.00;100659.72;5022768;28;20041;-73
2023/08/25 05:35:19;;;;;;;28.48;18.95;;;;;;;18.84;100.00;100671.28;5013626;28;20114;-73
2023/08/25 05:37:48;;;;;;;28.13;18.42;;;;;;;18.92;100.00;100674.03;5028901;28;20159;-72
2023/08/25 05:40:13;;;;;;;25.15;18.77;;;;;;;18.96;100.00;100658.88;5028378;28;20064;-73
2023/08/25 05:42:41;;;;;;;27.55;19.35;;;;;;;19.02;100.00;100649.91;5026841;28;20404;-71
2023/08/25 05:45:07;;;;;;;25.27;16.75;;;;;;;19.14;100.00;100655.13;5020251;28;20032;-72
2023/08/25 05:47:32;;;;;;;31.60;18.38;;;;;;;19.25;100.00;100652.88;5006931;28;20044;-72
2023/08/25 05:49:58;;;;;;;23.30;17.25;;;;;;;19.32;100.00;100653.06;5009685;28;20439;-73
2023/08/25 05:52:23;;;;;;;25.60;17.92;;;;;;;19.32;100.00;100653.06;5023623;28;20100;-72
2023/08/25 05:54:49;;;;;;;26.63;16.83;;;;;;;19.29;100.00;100645.13;5009583;28;20014;-71
2023/08/25 05:57:14;;;;;;;28.17;18.13;;;;;;;19.25;100.00;100641.84;5010023;28;20045;-73
2023/08/25 05:59:40;;;;;;;22.02;15.75;;;;;;;19.21;100.00;100646.00;5008670;28;20246;-71
2023/08/25 06:02:06;;;;;;;24.65;17.42;;;;;;;19.22;100.00;100641.34;5006965;28;20778;-72
2023/08/25 06:04:31;;;;;;;22.70;16.08;;;;;;;19.21;100.00;100640.47;5008276;28;20045;-72
2023/08/25 06:06:56;;;;;;;24.70;15.55;;;;;;;19.21;100.00;100640.47;5009240;28;20045;-72
2023/08/25 06:09:23;;;;;;;25.13;15.90;;;;;;;19.21;100.00;100628.56;5009104;28;20060;-72
2023/08/25 06:11:49;;;;;;;25.33;16.27;;;;;;;19.19;100.00;100622.38;4992041;28;20049;-72
2023/08/25 06:14:14;;;;;;;23.33;16.45;;;;;;;19.16;100.00;100639.25;5011377;28;20485;-72
2023/08/25 06:16:41;;;;;;;22.33;15.98;;;;;;;19.15;100.00;100634.78;5008489;28;20046;-72
2023/08/25 06:19:07;;;;;;;20.77;16.15;;;;;;;19.10;100.00;100625.13;5008541;28;20034;-72
2023/08/25 06:21:33;;;;;;;22.67;15.50;;;;;;;19.10;100.00;100635.28;5008874;28;20056;-72
2023/08/25 06:23:58;;;;;;;24.58;16.50;;;;;;;19.08;100.00;100646.50;5009135;28;20046;-72
2023/08/25 06:26:24;;;;;;;20.92;15.57;;;;;;;19.05;100.00;100646.84;5014831;28;20489;-72
2023/08/25 06:28:52;;;;;;;25.10;17.13;;;;;;;19.04;100.00;100647.03;5010862;28;20048;-72
2023/08/25 06:31:18;;;;;;;22.80;16.58;;;;;;;19.01;100.00;100659.22;5007955;28;20033;-72
2023/08/25 06:33:44;;;;;;;22.40;16.63;;;;;;;18.94;100.00;100638.91;5008582;28;20041;-72
2023/08/25 06:36:10;;;;;;;20.20;15.98;;;;;;;18.93;100.00;100652.84;5007298;28;20030;-72
2023/08/25 06:38:35;;;;;;;26.98;15.23;;;;;;;18.91;100.00;100649.41;5007403;28;20036;-72
2023/08/25 06:41:00;;;;;;;23.02;15.50;;;;;;;18.91;100.00;100655.78;5012095;28;20048;-72
2023/08/25 06:43:26;;;;;;;27.70;14.80;;;;;;;18.88;100.00;100638.72;5018198;28;20118;-72
2023/08/25 06:45:51;;;;;;;20.10;13.90;;;;;;;18.86;100.00;100649.91;5027416;28;20053;-73
2023/08/25 06:48:16;;;;;;;23.92;14.43;;;;;;;18.88;100.00;100664.38;5025230;28;20033;-71
2023/08/25 06:50:42;;;;;;;22.38;15.25;;;;;;;18.90;100.00;100664.22;5028041;28;20045;-73
2023/08/25 06:53:07;;;;;;;21.60;14.45;;;;;;;18.85;100.00;100639.94;5020475;28;20037;-74
2023/08/25 06:55:34;;;;;;;23.17;16.73;;;;;;;18.75;100.00;100614.41;5006194;28;20079;-74
2023/08/25 06:57:59;;;;;;;20.75;14.50;;;;;;;18.70;100.00;100605.78;5007201;28;20037;-74
2023/08/25 07:00:25;;;;;;;20.80;15.05;;;;;;;18.70;100.00;100614.03;5007134;28;20058;-73
2023/08/25 07:02:51;;;;;;;23.00;15.85;;;;;;;18.71;100.00;100585.47;5007521;28;20045;-74
2023/08/25 07:05:18;;;;;;;26.85;15.50;;;;;;;18.67;100.00;100575.78;5006943;28;20032;-72
2023/08/25 07:07:43;;;;;;;23.13;14.77;;;;;;;18.67;100.00;100587.66;5008779;28;20121;-74
2023/08/25 07:10:10;;;;;;;20.10;14.82;;;;;;;18.68;100.00;100577.50;5008168;28;20132;-73
2023/08/25 07:12:36;;;;;;;20.50;14.98;;;;;;;18.72;100.00;100589.94;5010431;28;20040;-74
2023/08/25 07:15:01;;;;;;;22.00;15.32;;;;;;;18.71;100.00;100591.00;5007537;28;20029;-73
2023/08/25 07:17:26;;;;;;;26.63;17.17;;;;;;;18.70;100.00;100580.97;5004904;28;20755;-73
2023/08/25 07:19:52;;;;;;;24.50;16.85;;;;;;;18.66;100.00;100574.94;5006486;28;20133;-73
2023/08/25 07:22:17;;;;;;;23.00;16.30;;;;;;;18.63;100.00;100594.53;5016596;28;20045;-72
2023/08/25 07:24:42;;;;;;;23.63;16.77;;;;;;;18.64;100.00;100634.84;5008418;28;20077;-74
2023/08/25 07:27:08;;;;;;;25.55;17.25;;;;;;;18.63;100.00;100679.97;5009124;28;20107;-74
2023/08/25 07:29:36;;;;;;;30.38;16.50;;;;;;;18.65;100.00;100737.66;5007783;28;20052;-73
2023/08/25 07:32:03;;;;;;;30.95;17.73;;;;;;;18.60;100.00;100741.81;5006748;28;20795;-74
2023/08/25 07:34:29;;;;;;;31.17;18.73;;;;;;;18.49;100.00;100651.16;5009159;28;20072;-72
2023/08/25 07:36:54;;;;;;;23.77;15.02;;;;;;;18.40;100.00;100613.59;5027358;28;20474;-74
2023/08/25 07:39:20;;;;;;;26.05;15.27;;;;;;;18.40;100.00;100607.25;5027336;28;20032;-74
2023/08/25 07:41:45;;;;;;;24.17;14.50;;;;;;;18.44;100.00;100639.78;5025858;28;20030;-72
2023/08/25 07:44:10;;;;;;;23.25;14.45;;;;;;;18.50;100.00;100643.75;5023864;28;20040;-74
2023/08/25 07:46:38;;;;;;;21.40;13.55;;;;;;;18.51;100.00;100651.88;5026364;28;20694;-74
2023/08/25 07:49:06;;;;;;;20.55;13.82;;;;;;;18.56;100.00;100663.25;5025208;28;20037;-73
2023/08/25 07:51:32;;;;;;;19.27;14.18;;;;;;;18.65;100.00;100666.00;5021410;28;20034;-74
2023/08/25 07:53:57;;;;;;;17.95;14.18;;;;;;;18.66;100.00;100668.63;5006301;28;20030;-73
2023/08/25 07:56:22;;;;;;;17.75;12.85;;;;;;;18.70;100.00;100677.44;5007289;28;20050;-73
2023/08/25 07:58:48;;;;;;;18.75;13.15;;;;;;;18.72;100.00;100670.72;5022818;28;20493;-73
2023/08/25 08:01:13;;;;;;;18.35;12.63;;;;;;;18.75;100.00;100664.91;5025316;28;20366;-73
2023/08/25 08:03:38;;;;;;;19.35;13.48;;;;;;;18.81;100.00;100672.47;5025127;28;20090;-74
2023/08/25 08:06:04;;;;;;;20.85;12.43;;;;;;;18.88;100.00;100677.31;5024975;28;20045;-73
2023/08/25 08:08:29;;;;;;;21.88;12.88;;;;;;;18.92;100.00;100689.72;5028353;28;20397;-73
2023/08/25 08:10:54;;;;;;;20.55;12.25;;;;;;;18.94;100.00;100684.91;5028534;28;20044;-73
2023/08/25 08:13:20;;;;;;;15.30;11.25;;;;;;;18.95;100.00;100683.88;5026842;28;20040;-73
2023/08/25 08:15:46;;;;;;;17.35;10.93;;;;;;;18.96;100.00;100666.31;5027504;28;20026;-73
2023/08/25 08:18:11;;;;;;;17.33;11.52;;;;;;;18.97;100.00;100655.09;5010642;28;20045;-72
2023/08/25 08:20:37;;;;;;;13.18;10.38;;;;;;;19.02;100.00;100680.25;5011473;28;20033;-72
2023/08/25 08:23:02;;;;;;;12.77;10.73;;;;;;;19.04;100.00;100660.81;5011188;28;20084;-72
2023/08/25 08:25:30;;;;;;;18.25;10.75;;;;;;;19.05;100.00;100649.59;5010803;28;20397;-72
2023/08/25 08:27:56;;;;;;;15.50;11.18;;;;;;;19.04;100.00;100647.88;5011477;28;20415;-72
2023/08/25 08:30:21;;;;;;;17.05;11.00;;;;;;;19.09;100.00;100652.88;5010110;28;20038;-71
2023/08/25 08:32:47;;;;;;;13.13;10.73;;;;;;;19.10;100.00;100657.34;5010833;28;20096;-72
2023/08/25 08:35:12;;;;;;;17.20;11.40;;;;;;;19.09;100.00;100644.59;5010365;28;20113;-72
2023/08/25 08:37:40;;;;;;;14.43;9.55;;;;;;;19.05;100.00;100648.72;5017357;28;20037;-71
2023/08/25 08:40:06;;;;;;;13.80;9.48;;;;;;;19.06;100.00;100667.84;5037318;28;20029;-71
2023/08/25 08:42:36;;;;;;;17.17;10.13;;;;;;;19.08;100.00;100675.97;5023551;28;20156;-72
2023/08/25 08:45:06;;;;;;;14.18;9.40;;;;;;;19.07;100.00;100677.88;5010650;28;20046;-72
2023/08/25 08:47:34;;;;;;;15.75;9.75;;;;;;;19.07;100.00;100677.88;5008951;28;20224;-72
2023/08/25 08:50:00;;;;;;;16.05;11.50;;;;;;;19.02;100.00;100658.19;5010559;28;20389;-71
2023/08/25 08:52:27;;;;;;;13.77;10.20;;;;;;;18.97;100.00;100657.84;5010037;28;20113;-72
2023/08/25 08:54:53;;;;;;;16.95;11.90;;;;;;;18.95;100.00;100675.59;5010249;28;20034;-72
2023/08/25 08:57:18;;;;;;;17.38;12.80;;;;;;;18.93;100.00;100684.06;5010367;28;20096;-72
2023/08/25 08:59:44;;;;;;;17.10;12.27;;;;;;;18.92;100.00;100682.31;5011199;28;20057;-72
2023/08/25 09:02:13;;;;;;;19.00;12.90;;;;;;;18.90;100.00;100680.78;5008717;28;20041;-71
2023/08/25 09:04:40;;;;;;;16.15;12.00;;;;;;;18.84;100.00;100674.91;5010312;28;20100;-72
2023/08/25 09:07:06;;;;;;;18.02;12.82;;;;;;;18.83;100.00;100675.06;5009714;28;20409;-72
2023/08/25 09:09:32;;;;;;;15.32;11.98;;;;;;;18.78;100.00;100649.91;5009827;28;20481;-72
2023/08/25 09:11:57;;;;;;;17.88;13.50;;;;;;;18.73;100.00;100646.78;5008567;28;20030;-71
2023/08/25 09:14:27;;;;;;;14.30;12.35;;;;;;;18.73;100.00;100675.22;5010216;28;20068;-73
2023/08/25 09:16:59;;;;;;;15.18;11.73;;;;;;;18.76;100.00;100707.09;5008843;28;20397;-73
2023/08/25 09:19:28;;;;;;;17.23;13.25;;;;;;;18.74;100.00;100698.97;5010022;28;20077;-71
2023/08/25 09:21:54;;;;;;;18.00;13.40;;;;;;;18.68;100.00;100660.19;5009985;28;20077;-72
2023/08/25 09:24:21;;;;;;;21.15;14.57;;;;;;;18.67;100.00;100658.47;5010019;28;20038;-71
2023/08/25 09:26:48;;;;;;;20.15;15.23;;;;;;;18.76;100.00;100663.84;5024851;28;20045;-71
2023/08/25 09:29:13;;;;;;;19.08;14.70;;;;;;;18.88;100.00;100653.34;5026524;28;20037;-72
2023/08/25 09:31:38;;;;;;;20.75;14.63;;;;;;;19.01;100.00;100648.22;5027364;28;20111;-73
2023/08/25 09:34:10;;;;;;;17.25;13.82;;;;;;;19.16;100.00;100655.78;5025337;28;20461;-73
2023/08/25 09:36:50;;;;;;;18.98;12.88;;;;;;;19.27;100.00;100661.84;5009763;28;20033;-72
2023/08/25 09:39:16;;;;;;;16.92;13.80;;;;;;;19.35;100.00;100652.69;5014724;28;20370;-73
2023/08/25 09:41:43;;;;;;;14.98;12.23;;;;;;;19.42;100.00;100661.16;5029631;28;20033;-72
2023/08/25 09:44:09;;;;;;;16.10;12.63;;;;;;;19.44;100.00;100659.94;5010221;28;20029;-72
2023/08/25 09:46:34;;;;;;;17.65;14.55;;;;;;;19.51;100.00;100657.34;5015476;28;20523;-72
2023/08/25 09:49:01;;;;;;;18.80;14.75;;;;;;;19.65;100.00;100667.72;5028608;28;20396;-72
2023/08/25 09:51:47;;;;;;;16.08;13.45;;;;;;;19.85;100.00;100682.00;5029172;28;20599;-72
2023/08/25 09:54:18;;;;;;;20.15;14.50;;;;;;;19.97;100.00;100669.56;5014407;28;20088;-72
2023/08/25 09:56:47;;;;;;;16.90;14.50;;;;;;;20.11;100.00;100668.81;5010012;28;20417;-72
2023/08/25 09:59:14;;;;;;;18.02;13.88;;;;;;;20.32;100.00;100661.84;5011802;28;20045;-72
2023/08/25 10:01:43;;;;;;;15.85;13.75;;;;;;;20.47;100.00;100661.94;5008930;28;20049;-72
2023/08/25 10:04:08;;;;;;;20.45;14.20;;;;;;;20.52;100.00;100660.41;5009200;28;20052;-73
2023/08/25 10:06:37;;;;;;;17.83;13.80;;;;;;;20.66;100.00;100657.91;5007920;28;20401;-72
2023/08/25 10:09:04;;;;;;;21.08;15.55;;;;;;;20.79;100.00;100666.47;5009280;28;20540;-72
2023/08/25 10:11:38;;;;;;;17.25;13.18;;;;;;;20.89;100.00;100669.88;5009242;28;20502;-72
2023/08/25 10:14:07;;;;;;;15.23;12.07;;;;;;;20.95;100.00;100662.75;5009512;28;20037;-72
2023/08/25 10:16:41;;;;;;;14.10;12.60;;;;;;;20.83;100.00;100667.81;5008181;28;20038;-72
2023/08/25 10:19:13;;;;;;;14.55;12.05;;;;;;;20.85;100.00;100671.28;5017501;28;20057;-73
2023/08/25 10:21:39;;;;;;;15.10;12.57;;;;;;;21.07;100.00;100675.94;5011410;28;20045;-72
2023/08/25 10:24:06;;;;;;;15.82;12.52;;;;;;;21.29;100.00;100677.00;5008834;28;20025;-73
2023/08/25 10:26:32;;;;;;;14.73;12.60;;;;;;;21.42;100.00;100670.03;5007533;28;20504;-72
2023/08/25 10:28:58;;;;;;;13.75;11.80;;;;;;;21.60;100.00;100673.34;5010690;28;20029;-72
2023/08/25 10:31:25;;;;;;;13.55;11.55;;;;;;;21.75;100.00;100676.13;5016562;28;20112;-73
2023/08/25 10:33:52;;;;;;;13.60;11.20;;;;;;;21.76;100.00;100675.94;5023485;28;20037;-72
2023/08/25 10:36:21;;;;;;;12.25;10.88;;;;;;;21.67;100.00;100671.50;5007818;28;20044;-71
2023/08/25 10:38:59;;;;;;;12.63;10.70;;;;;;;21.57;100.00;100665.38;5016725;28;20347;-71
2023/08/25 10:41:24;;;;;;;14.60;11.30;;;;;;;21.60;100.00;100670.56;5014706;28;20125;-72
2023/08/25 10:43:57;;;;;;;12.13;10.73;;;;;;;21.54;100.00;100680.47;5005844;28;20136;-72
2023/08/25 10:46:23;;;;;;;14.65;11.32;;;;;;;21.45;100.00;100687.13;5008393;28;20029;-72
2023/08/25 10:49:03;;;;;;;12.48;11.13;;;;;;;21.40;100.00;100692.34;5019465;28;20136;-71
2023/08/25 10:51:28;;;;;;;14.48;11.35;;;;;;;21.28;100.00;100691.03;5023867;28;20496;-72
2023/08/25 10:53:54;;;;;;;13.45;12.07;;;;;;;21.18;100.00;100680.22;5021789;28;20045;-72
2023/08/25 10:56:22;;;;;;;12.77;11.40;;;;;;;21.07;100.00;100681.47;5021700;28;20041;-72
2023/08/25 10:59:05;;;;;;;14.60;12.63;;;;;;;20.99;100.00;100669.66;5007209;28;20057;-72
2023/08/25 11:01:52;;;;;;;;;;;;;;;21.07;100.00;100675.09;5012963;28;20045;-72
2023/08/25 11:04:26;;;;;;;15.73;12.65;;;;;;;21.02;100.00;100672.03;5011288;28;19931;-72